sensor_id;sensor_type;location;lat;lon;timestamp;P1;durP1;ratioP1;P2;durP2;ratioP2
16705;SDS011;8469;60.136;15.180;2022-08-07T00:01:19;1.05;;;1.05;;
16705;SDS011;8469;60.136;15.180;2022-08-07T00:03:47;2.90;;;1.20;;
16705;SDS011;8469;60.136;15.180;2022-08-07T00:06:14;0.98;;;0.95;;
16705;SDS011;8469;60.136;15.180;2022-08-07T00:08:41;1.82;;;0.90;;
16705;SDS011;8469;60.136;15.180;2022-08-07T00:11:09;0.80;;;0.80;;
16705;SDS011;8469;60.136;15.180;2022-08-07T00:13:36;0.70;;;0.70;;
16705;SDS011;8469;60.136;15.180;2022-08-07T00:16:04;0.70;;;0.70;;
16705;SDS011;8469;60.136;15.180;2022-08-07T00:18:31;0.70;;;0.70;;
16705;SDS011;8469;60.136;15.180;2022-08-07T00:21:00;0.60;;;0.60;;
16705;SDS011;8469;60.136;15.180;2022-08-07T00:23:28;1.00;;;0.65;;
16705;SDS011;8469;60.136;15.180;2022-08-07T00:25:56;1.00;;;0.60;;
16705;SDS011;8469;60.136;15.180;2022-08-07T00:28:23;1.15;;;0.70;;
16705;SDS011;8469;60.136;15.180;2022-08-07T00:30:50;0.70;;;0.70;;
16705;SDS011;8469;60.136;15.180;2022-08-07T00:33:18;0.50;;;0.50;;
16705;SDS011;8469;60.136;15.180;2022-08-07T00:35:45;1.12;;;0.53;;
16705;SDS011;8469;60.136;15.180;2022-08-07T00:38:12;0.90;;;0.70;;
16705;SDS011;8469;60.136;15.180;2022-08-07T00:40:39;0.60;;;0.60;;
16705;SDS011;8469;60.136;15.180;2022-08-07T00:43:07;0.53;;;0.53;;
16705;SDS011;8469;60.136;15.180;2022-08-07T00:45:35;0.40;;;0.40;;
16705;SDS011;8469;60.136;15.180;2022-08-07T00:48:02;0.60;;;0.55;;
16705;SDS011;8469;60.136;15.180;2022-08-07T00:50:29;2.30;;;0.90;;
16705;SDS011;8469;60.136;15.180;2022-08-07T00:52:56;0.50;;;0.50;;
16705;SDS011;8469;60.136;15.180;2022-08-07T00:55:24;0.85;;;0.70;;
16705;SDS011;8469;60.136;15.180;2022-08-07T00:57:51;2.15;;;0.75;;
16705;SDS011;8469;60.136;15.180;2022-08-07T01:00:19;0.60;;;0.60;;
16705;SDS011;8469;60.136;15.180;2022-08-07T01:02:46;1.05;;;0.70;;
16705;SDS011;8469;60.136;15.180;2022-08-07T01:05:13;0.60;;;0.60;;
16705;SDS011;8469;60.136;15.180;2022-08-07T01:07:41;0.62;;;0.62;;
16705;SDS011;8469;60.136;15.180;2022-08-07T01:10:09;0.70;;;0.70;;
16705;SDS011;8469;60.136;15.180;2022-08-07T01:12:36;0.50;;;0.50;;
16705;SDS011;8469;60.136;15.180;2022-08-07T01:15:04;0.75;;;0.75;;
16705;SDS011;8469;60.136;15.180;2022-08-07T01:17:32;0.80;;;0.80;;
16705;SDS011;8469;60.136;15.180;2022-08-07T01:20:04;2.40;;;0.80;;
16705;SDS011;8469;60.136;15.180;2022-08-07T01:22:31;1.45;;;0.80;;
16705;SDS011;8469;60.136;15.180;2022-08-07T01:24:59;0.98;;;0.70;;
16705;SDS011;8469;60.136;15.180;2022-08-07T01:27:27;0.70;;;0.70;;
16705;SDS011;8469;60.136;15.180;2022-08-07T01:29:54;1.60;;;0.73;;
16705;SDS011;8469;60.136;15.180;2022-08-07T01:32:22;0.85;;;0.80;;
16705;SDS011;8469;60.136;15.180;2022-08-07T01:34:49;3.13;;;0.90;;
16705;SDS011;8469;60.136;15.180;2022-08-07T01:37:17;1.60;;;0.78;;
16705;SDS011;8469;60.136;15.180;2022-08-07T01:39:44;1.50;;;0.82;;
16705;SDS011;8469;60.136;15.180;2022-08-07T01:42:15;0.90;;;0.90;;
16705;SDS011;8469;60.136;15.180;2022-08-07T01:44:42;1.42;;;1.20;;
16705;SDS011;8469;60.136;15.180;2022-08-07T01:47:10;2.35;;;1.17;;
16705;SDS011;8469;60.136;15.180;2022-08-07T01:49:37;2.98;;;1.07;;
16705;SDS011;8469;60.136;15.180;2022-08-07T01:52:04;1.90;;;1.40;;
16705;SDS011;8469;60.136;15.180;2022-08-07T01:54:34;0.88;;;0.88;;
16705;SDS011;8469;60.136;15.180;2022-08-07T01:57:04;1.20;;;1.10;;
16705;SDS011;8469;60.136;15.180;2022-08-07T01:59:43;2.15;;;0.70;;
16705;SDS011;8469;60.136;15.180;2022-08-07T02:02:07;0.70;;;0.70;;
16705;SDS011;8469;60.136;15.180;2022-08-07T02:04:39;1.42;;;0.60;;
16705;SDS011;8469;60.136;15.180;2022-08-07T02:07:06;1.40;;;0.98;;
16705;SDS011;8469;60.136;15.180;2022-08-07T02:09:35;1.00;;;0.75;;
16705;SDS011;8469;60.136;15.180;2022-08-07T02:12:02;1.90;;;0.90;;
16705;SDS011;8469;60.136;15.180;2022-08-07T02:14:32;2.42;;;0.80;;
16705;SDS011;8469;60.136;15.180;2022-08-07T02:17:01;0.70;;;0.70;;
16705;SDS011;8469;60.136;15.180;2022-08-07T02:19:29;1.02;;;0.78;;
16705;SDS011;8469;60.136;15.180;2022-08-07T02:21:56;4.08;;;1.47;;
16705;SDS011;8469;60.136;15.180;2022-08-07T02:24:24;1.10;;;1.00;;
16705;SDS011;8469;60.136;15.180;2022-08-07T02:26:54;2.23;;;0.90;;
16705;SDS011;8469;60.136;15.180;2022-08-07T02:29:21;2.70;;;0.90;;
16705;SDS011;8469;60.136;15.180;2022-08-07T02:31:49;2.80;;;0.80;;
16705;SDS011;8469;60.136;15.180;2022-08-07T02:34:17;1.20;;;1.00;;
16705;SDS011;8469;60.136;15.180;2022-08-07T02:36:45;2.05;;;0.80;;
16705;SDS011;8469;60.136;15.180;2022-08-07T02:39:12;0.70;;;0.70;;
16705;SDS011;8469;60.136;15.180;2022-08-07T02:41:40;0.88;;;0.80;;
16705;SDS011;8469;60.136;15.180;2022-08-07T02:44:07;0.90;;;0.80;;
16705;SDS011;8469;60.136;15.180;2022-08-07T02:46:36;1.35;;;0.80;;
16705;SDS011;8469;60.136;15.180;2022-08-07T02:49:03;3.17;;;1.00;;
16705;SDS011;8469;60.136;15.180;2022-08-07T02:51:31;1.20;;;0.80;;
16705;SDS011;8469;60.136;15.180;2022-08-07T02:53:59;1.60;;;0.80;;
16705;SDS011;8469;60.136;15.180;2022-08-07T02:56:28;1.43;;;0.70;;
16705;SDS011;8469;60.136;15.180;2022-08-07T02:58:56;0.87;;;0.80;;
16705;SDS011;8469;60.136;15.180;2022-08-07T03:01:25;1.35;;;0.80;;
16705;SDS011;8469;60.136;15.180;2022-08-07T03:03:53;3.40;;;0.70;;
16705;SDS011;8469;60.136;15.180;2022-08-07T03:06:21;0.60;;;0.60;;
16705;SDS011;8469;60.136;15.180;2022-08-07T03:08:48;1.80;;;0.70;;
16705;SDS011;8469;60.136;15.180;2022-08-07T03:11:17;1.50;;;0.60;;
16705;SDS011;8469;60.136;15.180;2022-08-07T03:13:44;1.32;;;0.70;;
16705;SDS011;8469;60.136;15.180;2022-08-07T03:16:12;1.45;;;0.70;;
16705;SDS011;8469;60.136;15.180;2022-08-07T03:18:39;0.60;;;0.60;;
16705;SDS011;8469;60.136;15.180;2022-08-07T03:21:08;0.62;;;0.62;;
16705;SDS011;8469;60.136;15.180;2022-08-07T03:23:35;0.40;;;0.40;;
16705;SDS011;8469;60.136;15.180;2022-08-07T03:26:05;1.00;;;0.60;;
16705;SDS011;8469;60.136;15.180;2022-08-07T03:28:36;0.53;;;0.53;;
16705;SDS011;8469;60.136;15.180;2022-08-07T03:31:04;0.42;;;0.42;;
16705;SDS011;8469;60.136;15.180;2022-08-07T03:33:45;2.80;;;0.50;;
16705;SDS011;8469;60.136;15.180;2022-08-07T03:36:13;1.07;;;0.57;;
16705;SDS011;8469;60.136;15.180;2022-08-07T03:38:41;1.77;;;0.53;;
16705;SDS011;8469;60.136;15.180;2022-08-07T03:41:09;0.60;;;0.50;;
16705;SDS011;8469;60.136;15.180;2022-08-07T03:43:37;0.60;;;0.60;;
16705;SDS011;8469;60.136;15.180;2022-08-07T03:46:05;1.80;;;0.60;;
16705;SDS011;8469;60.136;15.180;2022-08-07T03:48:32;0.40;;;0.40;;
16705;SDS011;8469;60.136;15.180;2022-08-07T03:51:08;0.70;;;0.50;;
16705;SDS011;8469;60.136;15.180;2022-08-07T03:53:32;1.10;;;0.40;;
16705;SDS011;8469;60.136;15.180;2022-08-07T03:55:59;2.90;;;0.80;;
16705;SDS011;8469;60.136;15.180;2022-08-07T03:58:27;0.50;;;0.50;;
16705;SDS011;8469;60.136;15.180;2022-08-07T04:00:56;0.42;;;0.40;;
16705;SDS011;8469;60.136;15.180;2022-08-07T04:03:24;1.22;;;0.50;;
16705;SDS011;8469;60.136;15.180;2022-08-07T04:05:51;0.90;;;0.50;;
16705;SDS011;8469;60.136;15.180;2022-08-07T04:08:18;0.50;;;0.42;;
16705;SDS011;8469;60.136;15.180;2022-08-07T04:10:46;0.60;;;0.60;;
16705;SDS011;8469;60.136;15.180;2022-08-07T04:13:14;0.70;;;0.53;;
16705;SDS011;8469;60.136;15.180;2022-08-07T04:15:42;1.40;;;0.50;;
16705;SDS011;8469;60.136;15.180;2022-08-07T04:18:12;1.10;;;0.50;;
16705;SDS011;8469;60.136;15.180;2022-08-07T04:20:41;1.02;;;0.60;;
16705;SDS011;8469;60.136;15.180;2022-08-07T04:23:09;2.50;;;0.60;;
16705;SDS011;8469;60.136;15.180;2022-08-07T04:25:36;0.60;;;0.60;;
16705;SDS011;8469;60.136;15.180;2022-08-07T04:28:07;0.90;;;0.60;;
16705;SDS011;8469;60.136;15.180;2022-08-07T04:30:35;2.00;;;0.60;;
16705;SDS011;8469;60.136;15.180;2022-08-07T04:33:04;0.80;;;0.60;;
16705;SDS011;8469;60.136;15.180;2022-08-07T04:35:32;3.02;;;0.70;;
16705;SDS011;8469;60.136;15.180;2022-08-07T04:37:59;1.70;;;0.68;;
16705;SDS011;8469;60.136;15.180;2022-08-07T04:40:28;3.47;;;0.87;;
16705;SDS011;8469;60.136;15.180;2022-08-07T04:42:54;2.40;;;0.70;;
16705;SDS011;8469;60.136;15.180;2022-08-07T04:45:23;0.50;;;0.50;;
16705;SDS011;8469;60.136;15.180;2022-08-07T04:50:35;0.57;;;0.50;;
16705;SDS011;8469;60.136;15.180;2022-08-07T04:52:58;0.57;;;0.57;;
16705;SDS011;8469;60.136;15.180;2022-08-07T04:55:29;0.35;;;0.35;;
16705;SDS011;8469;60.136;15.180;2022-08-07T05:00:53;0.72;;;0.50;;
16705;SDS011;8469;60.136;15.180;2022-08-07T05:08:43;1.95;;;0.70;;
16705;SDS011;8469;60.136;15.180;2022-08-07T05:11:06;1.67;;;0.60;;
16705;SDS011;8469;60.136;15.180;2022-08-07T05:13:38;1.70;;;0.53;;
16705;SDS011;8469;60.136;15.180;2022-08-07T05:16:05;0.55;;;0.55;;
16705;SDS011;8469;60.136;15.180;2022-08-07T05:18:34;0.50;;;0.50;;
16705;SDS011;8469;60.136;15.180;2022-08-07T05:21:02;0.60;;;0.60;;
16705;SDS011;8469;60.136;15.180;2022-08-07T05:23:32;0.55;;;0.55;;
16705;SDS011;8469;60.136;15.180;2022-08-07T05:26:19;0.40;;;0.40;;
16705;SDS011;8469;60.136;15.180;2022-08-07T05:28:47;1.50;;;0.50;;
16705;SDS011;8469;60.136;15.180;2022-08-07T05:31:16;0.62;;;0.35;;
16705;SDS011;8469;60.136;15.180;2022-08-07T05:33:44;1.10;;;0.72;;
16705;SDS011;8469;60.136;15.180;2022-08-07T05:36:11;0.50;;;0.50;;
16705;SDS011;8469;60.136;15.180;2022-08-07T05:38:40;0.37;;;0.37;;
16705;SDS011;8469;60.136;15.180;2022-08-07T05:41:08;2.20;;;0.80;;
16705;SDS011;8469;60.136;15.180;2022-08-07T05:43:36;2.92;;;0.68;;
16705;SDS011;8469;60.136;15.180;2022-08-07T05:46:04;0.55;;;0.50;;
16705;SDS011;8469;60.136;15.180;2022-08-07T05:48:31;2.52;;;0.50;;
16705;SDS011;8469;60.136;15.180;2022-08-07T05:50:59;3.15;;;0.60;;
16705;SDS011;8469;60.136;15.180;2022-08-07T05:53:27;0.40;;;0.40;;
16705;SDS011;8469;60.136;15.180;2022-08-07T05:55:54;0.60;;;0.60;;
16705;SDS011;8469;60.136;15.180;2022-08-07T05:58:23;0.47;;;0.47;;
16705;SDS011;8469;60.136;15.180;2022-08-07T06:00:50;0.98;;;0.70;;
16705;SDS011;8469;60.136;15.180;2022-08-07T06:03:19;0.40;;;0.30;;
16705;SDS011;8469;60.136;15.180;2022-08-07T06:05:46;0.40;;;0.40;;
16705;SDS011;8469;60.136;15.180;2022-08-07T06:08:19;0.90;;;0.40;;
16705;SDS011;8469;60.136;15.180;2022-08-07T06:10:43;0.40;;;0.40;;
16705;SDS011;8469;60.136;15.180;2022-08-07T06:13:10;0.50;;;0.50;;
16705;SDS011;8469;60.136;15.180;2022-08-07T06:15:38;0.35;;;0.35;;
16705;SDS011;8469;60.136;15.180;2022-08-07T06:18:06;0.55;;;0.55;;
16705;SDS011;8469;60.136;15.180;2022-08-07T06:20:36;0.60;;;0.60;;
16705;SDS011;8469;60.136;15.180;2022-08-07T06:23:04;0.30;;;0.30;;
16705;SDS011;8469;60.136;15.180;2022-08-07T06:25:33;0.30;;;0.30;;
16705;SDS011;8469;60.136;15.180;2022-08-07T06:28:01;0.98;;;0.42;;
16705;SDS011;8469;60.136;15.180;2022-08-07T06:30:29;0.20;;;0.20;;
16705;SDS011;8469;60.136;15.180;2022-08-07T06:32:56;0.50;;;0.30;;
16705;SDS011;8469;60.136;15.180;2022-08-07T06:35:23;0.70;;;0.60;;
16705;SDS011;8469;60.136;15.180;2022-08-07T06:37:50;0.40;;;0.40;;
16705;SDS011;8469;60.136;15.180;2022-08-07T06:40:18;0.30;;;0.30;;
16705;SDS011;8469;60.136;15.180;2022-08-07T06:42:46;0.47;;;0.30;;
16705;SDS011;8469;60.136;15.180;2022-08-07T06:45:14;1.00;;;0.30;;
16705;SDS011;8469;60.136;15.180;2022-08-07T06:47:42;0.40;;;0.40;;
16705;SDS011;8469;60.136;15.180;2022-08-07T06:50:10;0.50;;;0.40;;
16705;SDS011;8469;60.136;15.180;2022-08-07T06:52:38;0.35;;;0.35;;
16705;SDS011;8469;60.136;15.180;2022-08-07T06:55:13;0.30;;;0.30;;
16705;SDS011;8469;60.136;15.180;2022-08-07T06:57:41;1.90;;;0.50;;
16705;SDS011;8469;60.136;15.180;2022-08-07T07:00:09;0.30;;;0.30;;
16705;SDS011;8469;60.136;15.180;2022-08-07T07:02:37;0.60;;;0.40;;
16705;SDS011;8469;60.136;15.180;2022-08-07T07:05:05;0.70;;;0.55;;
16705;SDS011;8469;60.136;15.180;2022-08-07T07:07:33;0.30;;;0.30;;
16705;SDS011;8469;60.136;15.180;2022-08-07T07:10:00;0.50;;;0.20;;
16705;SDS011;8469;60.136;15.180;2022-08-07T07:12:48;0.30;;;0.30;;
16705;SDS011;8469;60.136;15.180;2022-08-07T07:15:21;0.30;;;0.30;;
16705;SDS011;8469;60.136;15.180;2022-08-07T07:20:19;0.30;;;0.30;;
16705;SDS011;8469;60.136;15.180;2022-08-07T07:22:46;0.40;;;0.40;;
16705;SDS011;8469;60.136;15.180;2022-08-07T07:25:14;0.30;;;0.30;;
16705;SDS011;8469;60.136;15.180;2022-08-07T07:30:21;0.40;;;0.40;;
16705;SDS011;8469;60.136;15.180;2022-08-07T07:32:49;0.30;;;0.30;;
16705;SDS011;8469;60.136;15.180;2022-08-07T07:35:16;0.47;;;0.40;;
16705;SDS011;8469;60.136;15.180;2022-08-07T07:37:44;1.35;;;0.30;;
16705;SDS011;8469;60.136;15.180;2022-08-07T07:40:19;0.40;;;0.40;;
16705;SDS011;8469;60.136;15.180;2022-08-07T07:42:42;2.00;;;0.40;;
16705;SDS011;8469;60.136;15.180;2022-08-07T07:45:10;0.80;;;0.40;;
16705;SDS011;8469;60.136;15.180;2022-08-07T07:47:40;0.55;;;0.40;;
16705;SDS011;8469;60.136;15.180;2022-08-07T07:50:08;0.30;;;0.30;;
16705;SDS011;8469;60.136;15.180;2022-08-07T07:52:37;0.30;;;0.30;;
16705;SDS011;8469;60.136;15.180;2022-08-07T07:55:05;0.30;;;0.30;;
16705;SDS011;8469;60.136;15.180;2022-08-07T07:57:33;0.67;;;0.33;;
16705;SDS011;8469;60.136;15.180;2022-08-07T08:00:01;0.30;;;0.30;;
16705;SDS011;8469;60.136;15.180;2022-08-07T08:02:29;1.30;;;0.40;;
16705;SDS011;8469;60.136;15.180;2022-08-07T08:04:58;1.20;;;0.28;;
16705;SDS011;8469;60.136;15.180;2022-08-07T08:07:27;0.40;;;0.40;;
16705;SDS011;8469;60.136;15.180;2022-08-07T08:09:54;1.00;;;0.30;;
16705;SDS011;8469;60.136;15.180;2022-08-07T08:12:22;0.37;;;0.30;;
16705;SDS011;8469;60.136;15.180;2022-08-07T08:14:50;0.30;;;0.30;;
16705;SDS011;8469;60.136;15.180;2022-08-07T08:17:17;0.30;;;0.30;;
16705;SDS011;8469;60.136;15.180;2022-08-07T08:19:44;0.30;;;0.30;;
16705;SDS011;8469;60.136;15.180;2022-08-07T08:22:12;0.40;;;0.40;;
16705;SDS011;8469;60.136;15.180;2022-08-07T08:24:57;0.40;;;0.40;;
16705;SDS011;8469;60.136;15.180;2022-08-07T08:27:43;0.20;;;0.20;;
16705;SDS011;8469;60.136;15.180;2022-08-07T08:30:10;1.00;;;0.78;;
16705;SDS011;8469;60.136;15.180;2022-08-07T08:32:40;0.40;;;0.40;;
16705;SDS011;8469;60.136;15.180;2022-08-07T08:35:08;0.40;;;0.40;;
16705;SDS011;8469;60.136;15.180;2022-08-07T08:37:36;0.33;;;0.33;;
16705;SDS011;8469;60.136;15.180;2022-08-07T08:40:06;0.30;;;0.30;;
16705;SDS011;8469;60.136;15.180;2022-08-07T08:42:36;0.40;;;0.40;;
16705;SDS011;8469;60.136;15.180;2022-08-07T08:47:55;0.23;;;0.23;;
16705;SDS011;8469;60.136;15.180;2022-08-07T08:50:29;0.93;;;0.43;;
16705;SDS011;8469;60.136;15.180;2022-08-07T08:55:42;0.30;;;0.30;;
16705;SDS011;8469;60.136;15.180;2022-08-07T08:58:11;0.40;;;0.40;;
16705;SDS011;8469;60.136;15.180;2022-08-07T09:00:46;0.30;;;0.30;;
16705;SDS011;8469;60.136;15.180;2022-08-07T09:03:23;0.37;;;0.37;;
16705;SDS011;8469;60.136;15.180;2022-08-07T09:06:08;1.50;;;0.40;;
16705;SDS011;8469;60.136;15.180;2022-08-07T09:11:17;0.30;;;0.30;;
16705;SDS011;8469;60.136;15.180;2022-08-07T09:16:33;0.40;;;0.40;;
16705;SDS011;8469;60.136;15.180;2022-08-07T09:29:55;0.60;;;0.60;;
16705;SDS011;8469;60.136;15.180;2022-08-07T09:37:53;0.30;;;0.30;;
16705;SDS011;8469;60.136;15.180;2022-08-07T09:53:33;0.82;;;0.50;;
16705;SDS011;8469;60.136;15.180;2022-08-07T10:04:07;0.33;;;0.33;;
16705;SDS011;8469;60.136;15.180;2022-08-07T10:06:48;0.40;;;0.40;;
16705;SDS011;8469;60.136;15.180;2022-08-07T10:12:16;1.93;;;0.57;;
16705;SDS011;8469;60.136;15.180;2022-08-07T10:20:10;8.00;;;0.70;;
16705;SDS011;8469;60.136;15.180;2022-08-07T10:22:55;0.37;;;0.37;;
16705;SDS011;8469;60.136;15.180;2022-08-07T10:25:23;0.40;;;0.40;;
16705;SDS011;8469;60.136;15.180;2022-08-07T10:28:06;0.40;;;0.40;;
16705;SDS011;8469;60.136;15.180;2022-08-07T10:30:52;1.90;;;0.47;;
16705;SDS011;8469;60.136;15.180;2022-08-07T10:33:24;0.68;;;0.50;;
16705;SDS011;8469;60.136;15.180;2022-08-07T10:36:19;0.40;;;0.40;;
16705;SDS011;8469;60.136;15.180;2022-08-07T10:38:24;1.00;;;0.40;;
16705;SDS011;8469;60.136;15.180;2022-08-07T10:43:33;2.60;;;0.60;;
16705;SDS011;8469;60.136;15.180;2022-08-07T10:46:04;1.10;;;0.40;;
16705;SDS011;8469;60.136;15.180;2022-08-07T10:48:33;0.40;;;0.40;;
16705;SDS011;8469;60.136;15.180;2022-08-07T10:51:12;0.40;;;0.40;;
16705;SDS011;8469;60.136;15.180;2022-08-07T10:53:52;0.60;;;0.60;;
16705;SDS011;8469;60.136;15.180;2022-08-07T10:56:24;0.35;;;0.35;;
16705;SDS011;8469;60.136;15.180;2022-08-07T10:59:08;0.45;;;0.45;;
16705;SDS011;8469;60.136;15.180;2022-08-07T11:01:44;1.05;;;0.42;;
16705;SDS011;8469;60.136;15.180;2022-08-07T11:04:16;0.50;;;0.50;;
16705;SDS011;8469;60.136;15.180;2022-08-07T11:06:46;0.37;;;0.37;;
16705;SDS011;8469;60.136;15.180;2022-08-07T11:09:25;0.47;;;0.47;;
16705;SDS011;8469;60.136;15.180;2022-08-07T11:12:00;0.60;;;0.43;;
16705;SDS011;8469;60.136;15.180;2022-08-07T11:14:29;0.50;;;0.50;;
16705;SDS011;8469;60.136;15.180;2022-08-07T11:16:58;0.53;;;0.40;;
16705;SDS011;8469;60.136;15.180;2022-08-07T11:22:09;1.05;;;0.40;;
16705;SDS011;8469;60.136;15.180;2022-08-07T11:24:38;0.40;;;0.40;;
16705;SDS011;8469;60.136;15.180;2022-08-07T11:29:46;0.40;;;0.40;;
16705;SDS011;8469;60.136;15.180;2022-08-07T11:32:55;0.70;;;0.50;;
16705;SDS011;8469;60.136;15.180;2022-08-07T11:34:50;0.45;;;0.45;;
16705;SDS011;8469;60.136;15.180;2022-08-07T11:40:09;0.60;;;0.60;;
16705;SDS011;8469;60.136;15.180;2022-08-07T11:42:57;0.43;;;0.43;;
16705;SDS011;8469;60.136;15.180;2022-08-07T11:50:49;0.50;;;0.50;;
16705;SDS011;8469;60.136;15.180;2022-08-07T11:53:22;0.40;;;0.40;;
16705;SDS011;8469;60.136;15.180;2022-08-07T11:55:48;1.70;;;0.70;;
16705;SDS011;8469;60.136;15.180;2022-08-07T11:58:24;0.60;;;0.60;;
16705;SDS011;8469;60.136;15.180;2022-08-07T12:08:51;4.28;;;0.90;;
16705;SDS011;8469;60.136;15.180;2022-08-07T12:11:19;0.50;;;0.50;;
16705;SDS011;8469;60.136;15.180;2022-08-07T12:13:49;0.72;;;0.70;;
16705;SDS011;8469;60.136;15.180;2022-08-07T12:16:17;2.60;;;0.60;;
16705;SDS011;8469;60.136;15.180;2022-08-07T12:27:01;0.57;;;0.57;;
16705;SDS011;8469;60.136;15.180;2022-08-07T12:29:31;0.60;;;0.55;;
16705;SDS011;8469;60.136;15.180;2022-08-07T12:32:00;1.67;;;0.53;;
16705;SDS011;8469;60.136;15.180;2022-08-07T12:34:26;0.60;;;0.60;;
16705;SDS011;8469;60.136;15.180;2022-08-07T12:36:55;1.00;;;0.50;;
16705;SDS011;8469;60.136;15.180;2022-08-07T12:39:23;4.08;;;0.57;;
16705;SDS011;8469;60.136;15.180;2022-08-07T12:41:51;3.60;;;0.80;;
16705;SDS011;8469;60.136;15.180;2022-08-07T12:44:19;1.20;;;0.80;;
16705;SDS011;8469;60.136;15.180;2022-08-07T12:46:58;0.80;;;0.50;;
16705;SDS011;8469;60.136;15.180;2022-08-07T12:52:12;1.73;;;0.67;;
16705;SDS011;8469;60.136;15.180;2022-08-07T12:57:19;3.60;;;0.57;;
16705;SDS011;8469;60.136;15.180;2022-08-07T12:59:47;0.62;;;0.42;;
16705;SDS011;8469;60.136;15.180;2022-08-07T13:04:51;2.35;;;0.50;;
16705;SDS011;8469;60.136;15.180;2022-08-07T13:07:38;1.17;;;0.60;;
16705;SDS011;8469;60.136;15.180;2022-08-07T13:09:51;1.62;;;0.60;;
16705;SDS011;8469;60.136;15.180;2022-08-07T13:20:11;0.62;;;0.50;;
16705;SDS011;8469;60.136;15.180;2022-08-07T13:25:12;0.70;;;0.70;;
16705;SDS011;8469;60.136;15.180;2022-08-07T13:28:26;0.85;;;0.80;;
16705;SDS011;8469;60.136;15.180;2022-08-07T13:30:12;0.80;;;0.60;;
16705;SDS011;8469;60.136;15.180;2022-08-07T13:32:43;0.80;;;0.70;;
16705;SDS011;8469;60.136;15.180;2022-08-07T13:35:30;1.80;;;0.98;;
16705;SDS011;8469;60.136;15.180;2022-08-07T13:38:00;1.02;;;0.93;;
16705;SDS011;8469;60.136;15.180;2022-08-07T13:40:30;0.95;;;0.90;;
16705;SDS011;8469;60.136;15.180;2022-08-07T13:42:58;1.95;;;0.82;;
16705;SDS011;8469;60.136;15.180;2022-08-07T13:45:34;2.30;;;0.97;;
16705;SDS011;8469;60.136;15.180;2022-08-07T13:48:02;2.27;;;0.90;;
16705;SDS011;8469;60.136;15.180;2022-08-07T13:50:30;1.20;;;0.90;;
16705;SDS011;8469;60.136;15.180;2022-08-07T13:52:58;1.90;;;0.93;;
16705;SDS011;8469;60.136;15.180;2022-08-07T13:55:26;1.85;;;0.90;;
16705;SDS011;8469;60.136;15.180;2022-08-07T13:58:06;0.93;;;0.77;;
16705;SDS011;8469;60.136;15.180;2022-08-07T14:00:53;1.35;;;0.80;;
16705;SDS011;8469;60.136;15.180;2022-08-07T14:03:22;1.40;;;0.70;;
16705;SDS011;8469;60.136;15.180;2022-08-07T14:05:50;2.70;;;0.80;;
16705;SDS011;8469;60.136;15.180;2022-08-07T14:08:19;1.12;;;0.80;;
16705;SDS011;8469;60.136;15.180;2022-08-07T14:10:48;0.85;;;0.82;;
16705;SDS011;8469;60.136;15.180;2022-08-07T14:13:17;1.40;;;1.00;;
16705;SDS011;8469;60.136;15.180;2022-08-07T14:15:52;2.37;;;0.80;;
16705;SDS011;8469;60.136;15.180;2022-08-07T14:18:21;1.87;;;0.80;;
16705;SDS011;8469;60.136;15.180;2022-08-07T14:20:48;0.80;;;0.80;;
16705;SDS011;8469;60.136;15.180;2022-08-07T14:23:18;1.62;;;0.98;;
16705;SDS011;8469;60.136;15.180;2022-08-07T14:25:46;0.95;;;0.90;;
16705;SDS011;8469;60.136;15.180;2022-08-07T14:28:14;1.27;;;0.70;;
16705;SDS011;8469;60.136;15.180;2022-08-07T14:30:44;1.80;;;0.72;;
16705;SDS011;8469;60.136;15.180;2022-08-07T14:33:13;0.93;;;0.72;;
16705;SDS011;8469;60.136;15.180;2022-08-07T14:35:41;1.63;;;0.87;;
16705;SDS011;8469;60.136;15.180;2022-08-07T14:38:09;2.12;;;0.80;;
16705;SDS011;8469;60.136;15.180;2022-08-07T14:40:37;1.07;;;0.68;;
16705;SDS011;8469;60.136;15.180;2022-08-07T14:43:07;1.60;;;0.80;;
16705;SDS011;8469;60.136;15.180;2022-08-07T14:45:41;0.80;;;0.70;;
16705;SDS011;8469;60.136;15.180;2022-08-07T14:48:10;0.75;;;0.70;;
16705;SDS011;8469;60.136;15.180;2022-08-07T14:50:51;0.82;;;0.82;;
16705;SDS011;8469;60.136;15.180;2022-08-07T14:53:13;0.80;;;0.80;;
16705;SDS011;8469;60.136;15.180;2022-08-07T14:55:40;2.17;;;0.80;;
16705;SDS011;8469;60.136;15.180;2022-08-07T14:58:10;0.72;;;0.72;;
16705;SDS011;8469;60.136;15.180;2022-08-07T15:00:38;0.60;;;0.60;;
16705;SDS011;8469;60.136;15.180;2022-08-07T15:03:07;3.10;;;2.37;;
16705;SDS011;8469;60.136;15.180;2022-08-07T15:05:35;1.40;;;1.10;;
16705;SDS011;8469;60.136;15.180;2022-08-07T15:08:03;1.12;;;1.00;;
16705;SDS011;8469;60.136;15.180;2022-08-07T15:10:34;1.50;;;0.95;;
16705;SDS011;8469;60.136;15.180;2022-08-07T15:13:02;0.50;;;0.50;;
16705;SDS011;8469;60.136;15.180;2022-08-07T15:15:41;1.15;;;0.53;;
16705;SDS011;8469;60.136;15.180;2022-08-07T15:18:09;1.70;;;0.70;;
16705;SDS011;8469;60.136;15.180;2022-08-07T15:20:34;0.80;;;0.65;;
16705;SDS011;8469;60.136;15.180;2022-08-07T15:23:02;0.90;;;0.57;;
16705;SDS011;8469;60.136;15.180;2022-08-07T15:25:32;0.57;;;0.57;;
16705;SDS011;8469;60.136;15.180;2022-08-07T15:28:00;0.50;;;0.50;;
16705;SDS011;8469;60.136;15.180;2022-08-07T15:30:28;0.60;;;0.60;;
16705;SDS011;8469;60.136;15.180;2022-08-07T15:32:57;0.68;;;0.57;;
16705;SDS011;8469;60.136;15.180;2022-08-07T15:35:26;0.60;;;0.60;;
16705;SDS011;8469;60.136;15.180;2022-08-07T15:37:59;0.80;;;0.80;;
16705;SDS011;8469;60.136;15.180;2022-08-07T15:40:23;0.70;;;0.70;;
16705;SDS011;8469;60.136;15.180;2022-08-07T15:43:13;1.20;;;0.60;;
16705;SDS011;8469;60.136;15.180;2022-08-07T15:45:40;0.70;;;0.60;;
16705;SDS011;8469;60.136;15.180;2022-08-07T15:50:48;0.80;;;0.50;;
16705;SDS011;8469;60.136;15.180;2022-08-07T15:53:13;1.20;;;0.50;;
16705;SDS011;8469;60.136;15.180;2022-08-07T15:55:44;0.70;;;0.53;;
16705;SDS011;8469;60.136;15.180;2022-08-07T15:58:12;1.05;;;0.70;;
16705;SDS011;8469;60.136;15.180;2022-08-07T16:00:41;0.60;;;0.60;;
16705;SDS011;8469;60.136;15.180;2022-08-07T16:03:11;0.53;;;0.53;;
16705;SDS011;8469;60.136;15.180;2022-08-07T16:05:37;0.40;;;0.40;;
16705;SDS011;8469;60.136;15.180;2022-08-07T16:08:10;0.90;;;0.50;;
16705;SDS011;8469;60.136;15.180;2022-08-07T16:10:34;0.50;;;0.50;;
16705;SDS011;8469;60.136;15.180;2022-08-07T16:29:11;0.60;;;0.60;;
16705;SDS011;8469;60.136;15.180;2022-08-07T16:31:41;0.88;;;0.70;;
16705;SDS011;8469;60.136;15.180;2022-08-07T16:34:17;0.88;;;0.88;;
16705;SDS011;8469;60.136;15.180;2022-08-07T16:42:07;0.70;;;0.70;;
16705;SDS011;8469;60.136;15.180;2022-08-07T16:44:47;0.57;;;0.57;;
16705;SDS011;8469;60.136;15.180;2022-08-07T16:52:55;0.72;;;0.70;;
16705;SDS011;8469;60.136;15.180;2022-08-07T16:55:15;0.50;;;0.50;;
16705;SDS011;8469;60.136;15.180;2022-08-07T17:00:13;0.50;;;0.50;;
16705;SDS011;8469;60.136;15.180;2022-08-07T17:03:05;0.60;;;0.60;;
16705;SDS011;8469;60.136;15.180;2022-08-07T17:05:33;1.00;;;0.60;;
16705;SDS011;8469;60.136;15.180;2022-08-07T17:07:58;0.72;;;0.62;;
16705;SDS011;8469;60.136;15.180;2022-08-07T17:15:53;1.20;;;0.42;;
16705;SDS011;8469;60.136;15.180;2022-08-07T17:21:13;1.47;;;0.50;;
16705;SDS011;8469;60.136;15.180;2022-08-07T17:23:52;0.60;;;0.60;;
16705;SDS011;8469;60.136;15.180;2022-08-07T17:31:38;0.57;;;0.57;;
16705;SDS011;8469;60.136;15.180;2022-08-07T17:34:08;1.70;;;1.60;;
16705;SDS011;8469;60.136;15.180;2022-08-07T17:36:31;0.72;;;0.72;;
16705;SDS011;8469;60.136;15.180;2022-08-07T17:39:00;0.65;;;0.65;;
16705;SDS011;8469;60.136;15.180;2022-08-07T17:41:29;0.40;;;0.40;;
16705;SDS011;8469;60.136;15.180;2022-08-07T17:44:08;1.50;;;0.60;;
16705;SDS011;8469;60.136;15.180;2022-08-07T17:46:53;1.20;;;0.50;;
16705;SDS011;8469;60.136;15.180;2022-08-07T17:49:39;0.45;;;0.45;;
16705;SDS011;8469;60.136;15.180;2022-08-07T17:54:44;0.40;;;0.40;;